Aktuell sind 89 Gäste und keine Mitglieder online

[source: ADDS]
METAR
EDDV 240520Z 23009KT 200V260 9999 SCT016 BKN038 11/08 Q1016 TEMPO BKN013

ETHS 240520Z 26013KT 8000 SCT005 BKN008 09/08 Q1015 GRN GRN TEMPO YLO

ETHC 240520Z 23010KT 9999 -DZ BKN016 10/08 Q1016 WHT WHT TEMPO GRN

EDVK 240220Z 21009KT 180V240 9999 BKN015 07/07 Q1019

TAF
TAF EDDV 240500Z 2406/2506 21012KT 9999 SCT012 BKN020 PROB40 TEMPO 2406/2410 BKN012 BECMG 2408/2410 21015G25KT PROB40 TEMPO 2410/2416 22020G35KT BECMG 2500/2502 23012KT

SR / SS: 07:09 / 15:50 UTC (EDVE 2018-01-24)
das Jahr ist noch jung und wir begrüßen bereits drei neue Mitglieder! Hallo, Dirk, Michael und Miroslaw. Viel Spaß im Verein, bei der Ausbildung und bei euren Flügen! +++ Kurz vor Jahresende begrüßen wir Christoph als neues Mitglied! Herzlich willkommen und always happy landings! +++ Ferdinand hat Mitte November seinen PPL bestanden! Herzlichen Glückwunsch und always happy landings! +++ Willkommen im Verein, Torben! Viel Spaß und always happy landings! +++ Der November bringt zwei neue Mitglieder! Willkommen David und Martin! Viel Spaß und Erfolg bei der Ausbildung! +++ Herzlich Willkommen im Verein Thomas! (27.10.) +++ Christian und Dennis haben ihre PPL-Prüfung bestanden! Herzlichen Glückwunsch und always happy landings!
Letztes NOTAM EDVE
von 13.02.2018 0830Z bis 14.02.2018 1100Z
LEINE DVOR/DME DLE 115.20/CH99X ON MAINTENANCE. DO NOT USE. DISREGARD ALL SIGNALS.

Letztes NOTAM EDCB
von 07.01.2018 1124Z bis 18.03.2018 1800Z
GRAS RWY 09/27 CLSD.

Letztes NOTAM EDBC
von 10.01.2018 0000Z bis 10.04.2018 0000Z
COCHSTEDT DME COD 113.35/CH80Y FLTCK OVERDUE, DISREGARD ALL SIGNALS.

Letztes NOTAM EDVM
von 18.01.2018 1400Z bis 15.04.2018 1800Z
THR 25 DISPLACED 200M TO THE WEST. AVBL RWY LENGTH RWY 25 1020M. TKOF RWY 07 AVBL LENGTH 1020M. DEP SECTOR LIMITED IN THE SOUTHEASTEN [more]

Letztes NOTAM EDVI
von 18.12.2017 0000Z bis 28.02.2018 2359Z
AD PPR, REQ VIA PHONE +49(0)163-5744126 OR +49(0)5271-6999060

Letztes NOTAM EDDV
von 25.01.2018 1000Z bis 25.01.2018 1400Z
AVGAS STATON (GENERAL AVIATION) OUT OF SERVICE.

Letztes NOTAM EDVK
von 15.01.2018 2200Z bis 25.01.2018 2200Z
DIRECTION FINDING STATION NOT AVBL, DUE TO MAINT.

Letztes NOTAM EDVS
von 03.01.2018 0919Z bis 28.03.2018 2359Z
NORTHERN TWY CLOSED.

Letztes NOTAM ETHS
von 22.01.2018 0916Z bis 13.04.2018 1000Z
PARKING SPOT 4 IN FRONT OF HANGAR 12 CLSD.

EDCB.png          aerodata150     Radio38